sensor_id;sensor_type;location;lat;lon;timestamp;pressure;altitude;pressure_sealevel;temperature;humidity
16355;BME280;8287;51.644;8.494;2022-11-15T00:00:13;99868.16;;;10.54;79.46
16355;BME280;8287;51.644;8.494;2022-11-15T00:02:40;99855.22;;;10.52;80.23
16355;BME280;8287;51.644;8.494;2022-11-15T00:05:06;99858.94;;;10.43;81.09
16355;BME280;8287;51.644;8.494;2022-11-15T00:07:33;99852.06;;;10.59;80.96
16355;BME280;8287;51.644;8.494;2022-11-15T00:10:01;99852.38;;;10.66;80.93
16355;BME280;8287;51.644;8.494;2022-11-15T00:12:28;99853.63;;;10.68;80.67
16355;BME280;8287;51.644;8.494;2022-11-15T00:14:55;99851.53;;;10.91;80.48
16355;BME280;8287;51.644;8.494;2022-11-15T00:17:21;99847.47;;;10.93;80.31
16355;BME280;8287;51.644;8.494;2022-11-15T00:19:48;99849.16;;;10.98;80.64
16355;BME280;8287;51.644;8.494;2022-11-15T00:22:14;99851.09;;;11.18;80.38
16355;BME280;8287;51.644;8.494;2022-11-15T00:24:41;99847.63;;;11.26;80.21
16355;BME280;8287;51.644;8.494;2022-11-15T00:27:09;99843.06;;;11.35;79.92
16355;BME280;8287;51.644;8.494;2022-11-15T00:29:35;99843.53;;;11.37;80.20
16355;BME280;8287;51.644;8.494;2022-11-15T00:32:03;99840.38;;;11.43;80.61
16355;BME280;8287;51.644;8.494;2022-11-15T00:34:30;99841.94;;;11.15;81.61
16355;BME280;8287;51.644;8.494;2022-11-15T00:36:57;99840.69;;;11.42;82.00
16355;BME280;8287;51.644;8.494;2022-11-15T00:39:24;99837.25;;;11.12;83.01
16355;BME280;8287;51.644;8.494;2022-11-15T00:41:50;99838.47;;;11.44;82.82
16355;BME280;8287;51.644;8.494;2022-11-15T00:44:18;99838.56;;;11.56;82.06
16355;BME280;8287;51.644;8.494;2022-11-15T00:46:45;99826.06;;;11.65;81.58
16355;BME280;8287;51.644;8.494;2022-11-15T00:49:11;99830.66;;;11.76;81.17
16355;BME280;8287;51.644;8.494;2022-11-15T00:51:38;99826.06;;;11.85;80.92
16355;BME280;8287;51.644;8.494;2022-11-15T00:54:05;99817.00;;;11.86;80.60
16355;BME280;8287;51.644;8.494;2022-11-15T00:56:31;99818.28;;;11.80;80.89
16355;BME280;8287;51.644;8.494;2022-11-15T00:58:58;99808.13;;;11.62;81.84
16355;BME280;8287;51.644;8.494;2022-11-15T01:01:26;99818.88;;;11.65;82.74
16355;BME280;8287;51.644;8.494;2022-11-15T01:03:52;99823.53;;;11.68;81.94
16355;BME280;8287;51.644;8.494;2022-11-15T01:06:19;99812.25;;;11.71;82.84
16355;BME280;8287;51.644;8.494;2022-11-15T01:08:45;99809.56;;;11.80;83.27
16355;BME280;8287;51.644;8.494;2022-11-15T01:11:12;99787.66;;;11.83;84.10
16355;BME280;8287;51.644;8.494;2022-11-15T01:13:39;99785.97;;;11.99;83.55
16355;BME280;8287;51.644;8.494;2022-11-15T01:16:07;99784.06;;;12.20;82.99
16355;BME280;8287;51.644;8.494;2022-11-15T01:18:36;99793.81;;;12.28;83.73
16355;BME280;8287;51.644;8.494;2022-11-15T01:21:07;99785.41;;;12.26;83.56
16355;BME280;8287;51.644;8.494;2022-11-15T01:23:34;99773.28;;;12.37;83.09
16355;BME280;8287;51.644;8.494;2022-11-15T01:26:01;99778.25;;;12.38;83.24
16355;BME280;8287;51.644;8.494;2022-11-15T01:28:30;99771.75;;;12.48;82.51
16355;BME280;8287;51.644;8.494;2022-11-15T01:30:58;99776.25;;;12.35;82.25
16355;BME280;8287;51.644;8.494;2022-11-15T01:33:24;99773.91;;;12.22;82.24
16355;BME280;8287;51.644;8.494;2022-11-15T01:35:52;99768.94;;;12.32;82.81
16355;BME280;8287;51.644;8.494;2022-11-15T01:38:19;99781.94;;;12.46;81.63
16355;BME280;8287;51.644;8.494;2022-11-15T01:40:45;99779.16;;;12.42;81.26
16355;BME280;8287;51.644;8.494;2022-11-15T01:43:20;99784.78;;;12.53;81.33
16355;BME280;8287;51.644;8.494;2022-11-15T01:45:50;99785.81;;;12.60;81.82
16355;BME280;8287;51.644;8.494;2022-11-15T01:48:18;99778.97;;;12.71;82.63
16355;BME280;8287;51.644;8.494;2022-11-15T01:50:45;99775.09;;;12.81;83.14
16355;BME280;8287;51.644;8.494;2022-11-15T01:53:13;99766.38;;;12.92;83.28
16355;BME280;8287;51.644;8.494;2022-11-15T01:55:40;99774.66;;;12.91;82.80
16355;BME280;8287;51.644;8.494;2022-11-15T01:58:07;99777.22;;;12.87;82.81
16355;BME280;8287;51.644;8.494;2022-11-15T02:00:34;99778.44;;;12.90;82.49
16355;BME280;8287;51.644;8.494;2022-11-15T02:03:01;99774.09;;;12.73;83.41
16355;BME280;8287;51.644;8.494;2022-11-15T02:05:30;99770.56;;;12.69;83.18
16355;BME280;8287;51.644;8.494;2022-11-15T02:07:57;99767.78;;;12.66;83.52
16355;BME280;8287;51.644;8.494;2022-11-15T02:10:25;99767.56;;;12.83;83.22
16355;BME280;8287;51.644;8.494;2022-11-15T02:12:52;99773.75;;;12.75;83.34
16355;BME280;8287;51.644;8.494;2022-11-15T02:15:20;99775.09;;;12.81;82.33
16355;BME280;8287;51.644;8.494;2022-11-15T02:17:57;99775.94;;;12.61;82.02
16355;BME280;8287;51.644;8.494;2022-11-15T02:20:50;99774.69;;;12.34;81.96
16355;BME280;8287;51.644;8.494;2022-11-15T02:24:07;99771.00;;;12.15;82.77
16355;BME280;8287;51.644;8.494;2022-11-15T02:29:46;99768.56;;;11.89;83.84
16355;BME280;8287;51.644;8.494;2022-11-15T02:32:27;99769.53;;;11.85;84.94
16355;BME280;8287;51.644;8.494;2022-11-15T02:35:03;99763.84;;;11.95;84.06
16355;BME280;8287;51.644;8.494;2022-11-15T02:37:36;99752.72;;;11.81;84.73
16355;BME280;8287;51.644;8.494;2022-11-15T02:40:11;99757.72;;;11.82;85.12
16355;BME280;8287;51.644;8.494;2022-11-15T02:42:42;99742.59;;;11.95;85.32
16355;BME280;8287;51.644;8.494;2022-11-15T02:45:31;99739.94;;;11.95;85.82
16355;BME280;8287;51.644;8.494;2022-11-15T02:48:01;99744.59;;;11.98;85.74
16355;BME280;8287;51.644;8.494;2022-11-15T02:50:30;99739.31;;;12.10;86.82
16355;BME280;8287;51.644;8.494;2022-11-15T02:52:58;99738.94;;;12.20;85.81
16355;BME280;8287;51.644;8.494;2022-11-15T02:55:30;99739.78;;;12.12;85.94
16355;BME280;8287;51.644;8.494;2022-11-15T02:58:11;99734.78;;;12.10;86.44
16355;BME280;8287;51.644;8.494;2022-11-15T03:00:46;99742.31;;;12.08;86.59
16355;BME280;8287;51.644;8.494;2022-11-15T03:03:32;99720.34;;;12.32;87.05
16355;BME280;8287;51.644;8.494;2022-11-15T03:06:12;99722.59;;;12.54;86.47
16355;BME280;8287;51.644;8.494;2022-11-15T03:08:50;99730.88;;;12.64;86.66
16355;BME280;8287;51.644;8.494;2022-11-15T03:11:21;99727.91;;;12.66;85.99
16355;BME280;8287;51.644;8.494;2022-11-15T03:13:53;99717.38;;;12.69;85.31
16355;BME280;8287;51.644;8.494;2022-11-15T03:16:26;99726.00;;;12.54;86.51
16355;BME280;8287;51.644;8.494;2022-11-15T03:18:58;99718.84;;;12.55;87.00
16355;BME280;8287;51.644;8.494;2022-11-15T03:21:28;99715.25;;;12.51;85.68
16355;BME280;8287;51.644;8.494;2022-11-15T03:23:58;99718.59;;;12.48;82.88
16355;BME280;8287;51.644;8.494;2022-11-15T03:26:28;99717.03;;;12.47;83.05
16355;BME280;8287;51.644;8.494;2022-11-15T03:28:59;99716.69;;;12.48;81.61
16355;BME280;8287;51.644;8.494;2022-11-15T03:31:31;99718.34;;;12.29;81.29
16355;BME280;8287;51.644;8.494;2022-11-15T03:34:20;99723.63;;;12.17;82.25
16355;BME280;8287;51.644;8.494;2022-11-15T03:36:50;99716.34;;;12.26;81.87
16355;BME280;8287;51.644;8.494;2022-11-15T03:39:17;99727.38;;;12.16;82.68
16355;BME280;8287;51.644;8.494;2022-11-15T03:41:48;99726.56;;;12.03;83.28
16355;BME280;8287;51.644;8.494;2022-11-15T03:44:21;99719.72;;;12.02;84.31
16355;BME280;8287;51.644;8.494;2022-11-15T03:47:00;99714.72;;;12.01;84.79
16355;BME280;8287;51.644;8.494;2022-11-15T03:49:33;99723.59;;;12.05;84.71
16355;BME280;8287;51.644;8.494;2022-11-15T03:52:00;99726.44;;;11.88;85.71
16355;BME280;8287;51.644;8.494;2022-11-15T03:54:28;99715.50;;;12.01;84.78
16355;BME280;8287;51.644;8.494;2022-11-15T03:56:54;99715.69;;;11.84;86.37
16355;BME280;8287;51.644;8.494;2022-11-15T03:59:21;99724.34;;;11.93;85.30
16355;BME280;8287;51.644;8.494;2022-11-15T04:01:48;99728.00;;;12.01;85.43
16355;BME280;8287;51.644;8.494;2022-11-15T04:04:14;99723.22;;;11.94;85.75
16355;BME280;8287;51.644;8.494;2022-11-15T04:06:42;99715.25;;;11.82;86.65
16355;BME280;8287;51.644;8.494;2022-11-15T04:09:09;99732.00;;;11.95;87.53
16355;BME280;8287;51.644;8.494;2022-11-15T04:11:35;99725.69;;;11.99;87.56
16355;BME280;8287;51.644;8.494;2022-11-15T04:14:02;99722.41;;;12.14;87.45
16355;BME280;8287;51.644;8.494;2022-11-15T04:16:28;99723.66;;;12.29;86.07
16355;BME280;8287;51.644;8.494;2022-11-15T04:18:55;99721.66;;;12.26;86.27
16355;BME280;8287;51.644;8.494;2022-11-15T04:21:36;99714.81;;;12.37;86.27
16355;BME280;8287;51.644;8.494;2022-11-15T04:24:21;99713.06;;;12.41;85.36
16355;BME280;8287;51.644;8.494;2022-11-15T04:26:48;99713.50;;;12.43;85.89
16355;BME280;8287;51.644;8.494;2022-11-15T04:29:14;99724.03;;;12.51;85.55
16355;BME280;8287;51.644;8.494;2022-11-15T04:31:59;99714.38;;;12.47;85.31
16355;BME280;8287;51.644;8.494;2022-11-15T04:34:25;99719.81;;;12.62;85.15
16355;BME280;8287;51.644;8.494;2022-11-15T04:36:52;99711.63;;;12.67;84.78
16355;BME280;8287;51.644;8.494;2022-11-15T04:39:38;99703.31;;;12.69;84.58
16355;BME280;8287;51.644;8.494;2022-11-15T04:42:04;99719.84;;;12.74;84.24
16355;BME280;8287;51.644;8.494;2022-11-15T04:44:31;99702.66;;;12.72;84.53
16355;BME280;8287;51.644;8.494;2022-11-15T04:46:57;99709.88;;;12.83;83.85
16355;BME280;8287;51.644;8.494;2022-11-15T04:49:24;99707.97;;;12.72;84.31
16355;BME280;8287;51.644;8.494;2022-11-15T04:51:51;99704.44;;;12.80;84.11
16355;BME280;8287;51.644;8.494;2022-11-15T04:54:17;99697.91;;;12.77;84.49
16355;BME280;8287;51.644;8.494;2022-11-15T04:56:45;99706.66;;;12.90;85.35
16355;BME280;8287;51.644;8.494;2022-11-15T04:59:12;99704.44;;;13.04;85.56
16355;BME280;8287;51.644;8.494;2022-11-15T05:01:38;99709.97;;;13.11;85.24
16355;BME280;8287;51.644;8.494;2022-11-15T05:04:05;99710.69;;;13.35;84.61
16355;BME280;8287;51.644;8.494;2022-11-15T05:06:49;99701.06;;;13.30;84.01
16355;BME280;8287;51.644;8.494;2022-11-15T05:09:16;99707.34;;;13.50;84.30
16355;BME280;8287;51.644;8.494;2022-11-15T05:11:45;99706.69;;;13.68;82.07
16355;BME280;8287;51.644;8.494;2022-11-15T05:14:12;99701.81;;;13.70;82.28
16355;BME280;8287;51.644;8.494;2022-11-15T05:16:39;99709.22;;;13.77;81.69
16355;BME280;8287;51.644;8.494;2022-11-15T05:19:06;99714.19;;;13.78;81.85
16355;BME280;8287;51.644;8.494;2022-11-15T05:21:33;99711.28;;;13.83;81.33
16355;BME280;8287;51.644;8.494;2022-11-15T05:24:00;99713.81;;;13.92;81.06
16355;BME280;8287;51.644;8.494;2022-11-15T05:26:27;99705.56;;;13.97;80.17
16355;BME280;8287;51.644;8.494;2022-11-15T05:28:57;99707.81;;;13.95;80.65
16355;BME280;8287;51.644;8.494;2022-11-15T05:31:24;99703.69;;;13.97;79.87
16355;BME280;8287;51.644;8.494;2022-11-15T05:33:52;99703.41;;;14.02;79.80
16355;BME280;8287;51.644;8.494;2022-11-15T05:36:25;99697.53;;;14.09;79.91
16355;BME280;8287;51.644;8.494;2022-11-15T05:38:53;99693.03;;;14.13;79.47
16355;BME280;8287;51.644;8.494;2022-11-15T05:41:22;99694.59;;;14.14;79.51
16355;BME280;8287;51.644;8.494;2022-11-15T05:43:52;99699.16;;;14.13;79.73
16355;BME280;8287;51.644;8.494;2022-11-15T05:46:20;99686.88;;;14.09;79.64
16355;BME280;8287;51.644;8.494;2022-11-15T05:48:48;99691.81;;;14.22;79.73
16355;BME280;8287;51.644;8.494;2022-11-15T05:51:17;99685.53;;;14.30;79.15
16355;BME280;8287;51.644;8.494;2022-11-15T05:53:46;99686.72;;;14.33;78.80
16355;BME280;8287;51.644;8.494;2022-11-15T05:56:13;99692.84;;;14.33;78.87
16355;BME280;8287;51.644;8.494;2022-11-15T05:58:40;99687.69;;;14.40;78.93
16355;BME280;8287;51.644;8.494;2022-11-15T06:01:08;99682.94;;;14.49;78.56
16355;BME280;8287;51.644;8.494;2022-11-15T06:03:36;99691.88;;;14.57;77.58
16355;BME280;8287;51.644;8.494;2022-11-15T06:06:02;99695.06;;;14.62;77.59
16355;BME280;8287;51.644;8.494;2022-11-15T06:08:29;99696.72;;;14.67;77.65
16355;BME280;8287;51.644;8.494;2022-11-15T06:10:55;99709.69;;;14.68;77.42
16355;BME280;8287;51.644;8.494;2022-11-15T06:13:22;99704.84;;;14.74;76.38
16355;BME280;8287;51.644;8.494;2022-11-15T06:15:49;99702.19;;;14.74;77.08
16355;BME280;8287;51.644;8.494;2022-11-15T06:18:15;99712.19;;;14.77;77.09
16355;BME280;8287;51.644;8.494;2022-11-15T06:20:43;99710.44;;;14.84;75.94
16355;BME280;8287;51.644;8.494;2022-11-15T06:23:10;99707.34;;;14.82;76.81
16355;BME280;8287;51.644;8.494;2022-11-15T06:25:37;99705.72;;;14.78;76.69
16355;BME280;8287;51.644;8.494;2022-11-15T06:28:03;99696.75;;;14.70;77.49
16355;BME280;8287;51.644;8.494;2022-11-15T06:30:30;99696.16;;;14.61;77.43
16355;BME280;8287;51.644;8.494;2022-11-15T06:33:00;99700.38;;;14.62;77.50
16355;BME280;8287;51.644;8.494;2022-11-15T06:35:28;99700.47;;;14.66;77.35
16355;BME280;8287;51.644;8.494;2022-11-15T06:37:57;99703.31;;;14.57;77.34
16355;BME280;8287;51.644;8.494;2022-11-15T06:40:27;99714.25;;;14.68;77.35
16355;BME280;8287;51.644;8.494;2022-11-15T06:42:57;99719.66;;;14.71;76.31
16355;BME280;8287;51.644;8.494;2022-11-15T06:45:24;99721.72;;;14.78;76.53
16355;BME280;8287;51.644;8.494;2022-11-15T06:47:50;99718.28;;;14.77;76.10
16355;BME280;8287;51.644;8.494;2022-11-15T06:50:17;99726.03;;;14.82;76.32
16355;BME280;8287;51.644;8.494;2022-11-15T06:52:44;99722.06;;;14.76;76.51
16355;BME280;8287;51.644;8.494;2022-11-15T06:55:12;99725.16;;;14.78;75.95
16355;BME280;8287;51.644;8.494;2022-11-15T06:57:46;99729.72;;;14.78;76.08
16355;BME280;8287;51.644;8.494;2022-11-15T07:00:14;99733.50;;;14.77;76.36
16355;BME280;8287;51.644;8.494;2022-11-15T07:02:41;99739.59;;;14.77;76.44
16355;BME280;8287;51.644;8.494;2022-11-15T07:05:08;99738.94;;;14.80;76.66
16355;BME280;8287;51.644;8.494;2022-11-15T07:07:34;99745.81;;;14.81;76.27
16355;BME280;8287;51.644;8.494;2022-11-15T07:10:01;99740.91;;;14.83;76.87
16355;BME280;8287;51.644;8.494;2022-11-15T07:12:29;99746.31;;;14.87;76.70
16355;BME280;8287;51.644;8.494;2022-11-15T07:14:55;99750.69;;;14.95;76.73
16355;BME280;8287;51.644;8.494;2022-11-15T07:17:22;99751.53;;;14.99;76.80
16355;BME280;8287;51.644;8.494;2022-11-15T07:19:48;99758.16;;;15.05;76.55
16355;BME280;8287;51.644;8.494;2022-11-15T07:22:15;99755.59;;;15.08;76.54
16355;BME280;8287;51.644;8.494;2022-11-15T07:24:41;99754.19;;;15.14;76.01
16355;BME280;8287;51.644;8.494;2022-11-15T07:27:08;99751.63;;;15.18;76.04
16355;BME280;8287;51.644;8.494;2022-11-15T07:29:36;99756.25;;;15.21;76.11
16355;BME280;8287;51.644;8.494;2022-11-15T07:32:03;99762.94;;;15.30;75.52
16355;BME280;8287;51.644;8.494;2022-11-15T07:34:30;99761.25;;;15.22;75.57
16355;BME280;8287;51.644;8.494;2022-11-15T07:36:56;99750.81;;;15.33;75.67
16355;BME280;8287;51.644;8.494;2022-11-15T07:39:23;99753.94;;;15.35;75.58
16355;BME280;8287;51.644;8.494;2022-11-15T07:41:50;99751.69;;;15.37;75.69
16355;BME280;8287;51.644;8.494;2022-11-15T07:44:37;99749.72;;;15.34;75.73
16355;BME280;8287;51.644;8.494;2022-11-15T07:47:04;99758.44;;;15.50;75.16
16355;BME280;8287;51.644;8.494;2022-11-15T07:49:31;99756.19;;;15.52;74.45
16355;BME280;8287;51.644;8.494;2022-11-15T07:51:57;99756.69;;;15.57;74.36
16355;BME280;8287;51.644;8.494;2022-11-15T07:54:24;99749.97;;;15.63;74.11
16355;BME280;8287;51.644;8.494;2022-11-15T07:56:51;99758.47;;;15.69;73.82
16355;BME280;8287;51.644;8.494;2022-11-15T07:59:17;99755.41;;;15.70;73.36
16355;BME280;8287;51.644;8.494;2022-11-15T08:01:46;99760.50;;;15.75;73.68
16355;BME280;8287;51.644;8.494;2022-11-15T08:04:12;99761.28;;;15.76;73.18
16355;BME280;8287;51.644;8.494;2022-11-15T08:06:39;99762.09;;;15.80;73.13
16355;BME280;8287;51.644;8.494;2022-11-15T08:09:06;99758.31;;;15.81;73.39
16355;BME280;8287;51.644;8.494;2022-11-15T08:11:32;99762.94;;;15.84;72.88
16355;BME280;8287;51.644;8.494;2022-11-15T08:13:59;99766.47;;;15.88;72.92
16355;BME280;8287;51.644;8.494;2022-11-15T08:16:25;99771.88;;;15.91;72.62
16355;BME280;8287;51.644;8.494;2022-11-15T08:18:53;99763.88;;;15.91;72.34
16355;BME280;8287;51.644;8.494;2022-11-15T08:21:20;99767.66;;;15.90;72.52
16355;BME280;8287;51.644;8.494;2022-11-15T08:23:47;99774.25;;;15.96;72.01
16355;BME280;8287;51.644;8.494;2022-11-15T08:26:14;99773.56;;;15.99;70.74
16355;BME280;8287;51.644;8.494;2022-11-15T08:28:41;99769.34;;;15.98;70.68
16355;BME280;8287;51.644;8.494;2022-11-15T08:31:13;99772.94;;;16.06;70.68
16355;BME280;8287;51.644;8.494;2022-11-15T08:33:40;99762.22;;;16.06;69.79
16355;BME280;8287;51.644;8.494;2022-11-15T08:36:13;99761.81;;;16.04;70.45
16355;BME280;8287;51.644;8.494;2022-11-15T08:38:40;99759.28;;;16.11;69.24
16355;BME280;8287;51.644;8.494;2022-11-15T08:41:06;99754.75;;;16.15;68.77
16355;BME280;8287;51.644;8.494;2022-11-15T08:43:33;99752.56;;;16.20;69.17
16355;BME280;8287;51.644;8.494;2022-11-15T08:45:59;99759.53;;;16.25;68.15
16355;BME280;8287;51.644;8.494;2022-11-15T08:48:26;99757.31;;;16.30;67.91
16355;BME280;8287;51.644;8.494;2022-11-15T08:50:53;99760.78;;;16.31;67.28
16355;BME280;8287;51.644;8.494;2022-11-15T08:53:22;99754.53;;;16.42;66.55
16355;BME280;8287;51.644;8.494;2022-11-15T08:55:48;99757.63;;;16.44;66.03
16355;BME280;8287;51.644;8.494;2022-11-15T08:58:15;99757.69;;;16.48;66.45
16355;BME280;8287;51.644;8.494;2022-11-15T09:00:41;99754.72;;;16.53;66.17
16355;BME280;8287;51.644;8.494;2022-11-15T09:03:08;99749.00;;;16.54;65.79
16355;BME280;8287;51.644;8.494;2022-11-15T09:05:36;99754.47;;;16.61;65.01
16355;BME280;8287;51.644;8.494;2022-11-15T09:08:03;99755.59;;;16.60;64.76
16355;BME280;8287;51.644;8.494;2022-11-15T09:10:31;99754.88;;;16.63;64.21
16355;BME280;8287;51.644;8.494;2022-11-15T09:12:57;99752.97;;;16.64;63.86
16355;BME280;8287;51.644;8.494;2022-11-15T09:15:24;99763.41;;;16.69;63.63
16355;BME280;8287;51.644;8.494;2022-11-15T09:17:51;99763.88;;;16.74;63.36
16355;BME280;8287;51.644;8.494;2022-11-15T09:20:17;99758.56;;;16.77;63.38
16355;BME280;8287;51.644;8.494;2022-11-15T09:22:44;99760.53;;;16.80;63.24
16355;BME280;8287;51.644;8.494;2022-11-15T09:25:11;99760.06;;;16.75;62.23
16355;BME280;8287;51.644;8.494;2022-11-15T09:27:39;99760.94;;;16.82;62.07
16355;BME280;8287;51.644;8.494;2022-11-15T09:30:07;99758.25;;;16.82;62.17
16355;BME280;8287;51.644;8.494;2022-11-15T09:32:34;99761.31;;;16.81;61.69
16355;BME280;8287;51.644;8.494;2022-11-15T09:35:00;99752.91;;;16.82;61.89
16355;BME280;8287;51.644;8.494;2022-11-15T09:37:28;99751.13;;;16.90;62.59
16355;BME280;8287;51.644;8.494;2022-11-15T09:39:54;99755.59;;;16.82;62.28
16355;BME280;8287;51.644;8.494;2022-11-15T09:42:29;99753.28;;;16.81;61.69
16355;BME280;8287;51.644;8.494;2022-11-15T09:45:13;99750.75;;;16.91;62.94
16355;BME280;8287;51.644;8.494;2022-11-15T09:47:56;99754.38;;;17.02;62.41
16355;BME280;8287;51.644;8.494;2022-11-15T09:50:34;99748.66;;;17.04;61.37
16355;BME280;8287;51.644;8.494;2022-11-15T09:53:03;99746.59;;;17.20;60.82
16355;BME280;8287;51.644;8.494;2022-11-15T09:55:36;99745.16;;;17.26;60.79
16355;BME280;8287;51.644;8.494;2022-11-15T09:58:21;99744.84;;;17.31;60.42
16355;BME280;8287;51.644;8.494;2022-11-15T10:00:52;99743.81;;;17.39;59.64
16355;BME280;8287;51.644;8.494;2022-11-15T10:03:23;99737.75;;;17.42;59.26
16355;BME280;8287;51.644;8.494;2022-11-15T10:05:55;99735.41;;;17.40;59.93
16355;BME280;8287;51.644;8.494;2022-11-15T10:08:49;99729.38;;;17.47;59.84
16355;BME280;8287;51.644;8.494;2022-11-15T10:11:19;99730.00;;;17.37;59.95
16355;BME280;8287;51.644;8.494;2022-11-15T10:13:48;99728.22;;;17.44;58.95
16355;BME280;8287;51.644;8.494;2022-11-15T10:16:40;99723.72;;;17.52;59.36
16355;BME280;8287;51.644;8.494;2022-11-15T10:19:25;99725.59;;;17.51;59.90
16355;BME280;8287;51.644;8.494;2022-11-15T10:22:08;99717.31;;;17.60;58.96
16355;BME280;8287;51.644;8.494;2022-11-15T10:24:41;99718.19;;;17.71;59.48
16355;BME280;8287;51.644;8.494;2022-11-15T10:27:11;99707.44;;;17.67;59.23
16355;BME280;8287;51.644;8.494;2022-11-15T10:29:43;99706.28;;;17.68;59.63
16355;BME280;8287;51.644;8.494;2022-11-15T10:32:13;99691.25;;;17.57;57.75
16355;BME280;8287;51.644;8.494;2022-11-15T10:34:40;99690.56;;;17.63;58.33
16355;BME280;8287;51.644;8.494;2022-11-15T10:37:07;99679.13;;;17.70;58.30
16355;BME280;8287;51.644;8.494;2022-11-15T10:39:34;99683.75;;;17.69;58.57
16355;BME280;8287;51.644;8.494;2022-11-15T10:42:16;99678.06;;;17.78;58.58
16355;BME280;8287;51.644;8.494;2022-11-15T10:44:44;99667.84;;;17.87;56.82
16355;BME280;8287;51.644;8.494;2022-11-15T10:47:28;99660.94;;;17.86;57.63
16355;BME280;8287;51.644;8.494;2022-11-15T10:50:02;99659.88;;;17.94;57.93
16355;BME280;8287;51.644;8.494;2022-11-15T10:52:30;99661.84;;;18.00;58.65
16355;BME280;8287;51.644;8.494;2022-11-15T10:55:02;99658.84;;;18.05;58.18
16355;BME280;8287;51.644;8.494;2022-11-15T10:57:32;99646.56;;;18.04;58.52
16355;BME280;8287;51.644;8.494;2022-11-15T11:00:01;99640.94;;;18.20;58.42
16355;BME280;8287;51.644;8.494;2022-11-15T11:02:33;99642.84;;;18.16;56.87
16355;BME280;8287;51.644;8.494;2022-11-15T11:05:01;99642.47;;;18.17;56.09
16355;BME280;8287;51.644;8.494;2022-11-15T11:07:30;99634.50;;;18.28;55.59
16355;BME280;8287;51.644;8.494;2022-11-15T11:10:00;99638.66;;;18.22;54.75
16355;BME280;8287;51.644;8.494;2022-11-15T11:12:28;99642.47;;;18.17;55.03
16355;BME280;8287;51.644;8.494;2022-11-15T11:14:58;99630.06;;;17.99;55.12
16355;BME280;8287;51.644;8.494;2022-11-15T11:17:34;99630.50;;;18.08;55.75
16355;BME280;8287;51.644;8.494;2022-11-15T11:20:09;99631.38;;;18.19;56.16
16355;BME280;8287;51.644;8.494;2022-11-15T11:22:45;99634.84;;;18.19;55.92
16355;BME280;8287;51.644;8.494;2022-11-15T11:25:26;99634.56;;;18.31;56.17
16355;BME280;8287;51.644;8.494;2022-11-15T11:28:14;99629.97;;;18.35;55.65
16355;BME280;8287;51.644;8.494;2022-11-15T11:30:52;99612.31;;;18.31;55.80
16355;BME280;8287;51.644;8.494;2022-11-15T11:33:29;99611.38;;;18.13;56.80
16355;BME280;8287;51.644;8.494;2022-11-15T11:36:05;99600.06;;;18.30;55.49
16355;BME280;8287;51.644;8.494;2022-11-15T11:38:48;99604.00;;;18.43;54.28
16355;BME280;8287;51.644;8.494;2022-11-15T11:41:26;99585.59;;;18.45;54.60
16355;BME280;8287;51.644;8.494;2022-11-15T11:44:05;99585.59;;;18.45;53.49
16355;BME280;8287;51.644;8.494;2022-11-15T11:46:46;99572.25;;;18.52;53.38
16355;BME280;8287;51.644;8.494;2022-11-15T11:49:19;99579.56;;;18.58;52.45
16355;BME280;8287;51.644;8.494;2022-11-15T11:51:50;99573.38;;;18.51;51.98
16355;BME280;8287;51.644;8.494;2022-11-15T11:54:24;99566.16;;;18.62;51.03
16355;BME280;8287;51.644;8.494;2022-11-15T11:56:53;99553.09;;;18.60;50.84
16355;BME280;8287;51.644;8.494;2022-11-15T11:59:31;99562.00;;;18.71;51.59
16355;BME280;8287;51.644;8.494;2022-11-15T12:02:11;99562.69;;;18.58;51.54
16355;BME280;8287;51.644;8.494;2022-11-15T12:04:43;99562.00;;;18.71;50.95
16355;BME280;8287;51.644;8.494;2022-11-15T12:07:14;99562.88;;;18.93;50.58
16355;BME280;8287;51.644;8.494;2022-11-15T12:09:46;99554.09;;;19.03;50.16
16355;BME280;8287;51.644;8.494;2022-11-15T12:12:23;99556.09;;;19.20;50.28
16355;BME280;8287;51.644;8.494;2022-11-15T12:14:55;99558.72;;;19.16;49.32
16355;BME280;8287;51.644;8.494;2022-11-15T12:17:24;99560.25;;;19.17;48.98
16355;BME280;8287;51.644;8.494;2022-11-15T12:19:56;99558.41;;;19.21;48.64
16355;BME280;8287;51.644;8.494;2022-11-15T12:22:33;99550.28;;;19.11;48.60
16355;BME280;8287;51.644;8.494;2022-11-15T12:25:04;99552.59;;;19.16;47.88
16355;BME280;8287;51.644;8.494;2022-11-15T12:27:34;99547.25;;;19.23;47.75
16355;BME280;8287;51.644;8.494;2022-11-15T12:30:07;99536.53;;;19.33;48.14
16355;BME280;8287;51.644;8.494;2022-11-15T12:32:38;99531.56;;;19.39;47.97
16355;BME280;8287;51.644;8.494;2022-11-15T12:35:23;99521.22;;;19.37;48.14
16355;BME280;8287;51.644;8.494;2022-11-15T12:37:51;99518.53;;;19.51;47.40
16355;BME280;8287;51.644;8.494;2022-11-15T12:40:28;99517.75;;;19.37;48.03
16355;BME280;8287;51.644;8.494;2022-11-15T12:45:45;99510.13;;;19.67;47.53
16355;BME280;8287;51.644;8.494;2022-11-15T12:55:00;99503.56;;;19.33;44.71
16355;BME280;8287;51.644;8.494;2022-11-15T12:57:41;99506.25;;;19.33;45.45
16355;BME280;8287;51.644;8.494;2022-11-15T13:00:37;99500.88;;;19.29;44.56
16355;BME280;8287;51.644;8.494;2022-11-15T13:03:25;99496.25;;;19.37;45.04
16355;BME280;8287;51.644;8.494;2022-11-15T13:05:57;99499.34;;;19.53;45.47
16355;BME280;8287;51.644;8.494;2022-11-15T13:08:47;99494.72;;;19.60;43.71
16355;BME280;8287;51.644;8.494;2022-11-15T13:11:43;99497.44;;;19.53;45.82
16355;BME280;8287;51.644;8.494;2022-11-15T13:14:44;99495.53;;;19.64;45.18
16355;BME280;8287;51.644;8.494;2022-11-15T13:17:27;99498.59;;;19.66;42.44
16355;BME280;8287;51.644;8.494;2022-11-15T13:20:00;99489.38;;;19.67;42.69
16355;BME280;8287;51.644;8.494;2022-11-15T13:22:27;99490.91;;;19.72;42.12
16355;BME280;8287;51.644;8.494;2022-11-15T13:25:19;99490.53;;;19.66;42.81
16355;BME280;8287;51.644;8.494;2022-11-15T13:27:50;99497.81;;;19.55;42.00
16355;BME280;8287;51.644;8.494;2022-11-15T13:30:20;99491.66;;;19.58;42.71
16355;BME280;8287;51.644;8.494;2022-11-15T13:32:48;99489.75;;;19.55;42.86
16355;BME280;8287;51.644;8.494;2022-11-15T13:35:22;99488.97;;;19.48;43.44
16355;BME280;8287;51.644;8.494;2022-11-15T13:37:49;99477.09;;;19.49;43.75
16355;BME280;8287;51.644;8.494;2022-11-15T13:40:23;99483.22;;;19.46;43.86